createdAt,value
2019-01-16T00:00:35.542Z,38.97
2019-01-16T00:03:06.975Z,55.47
2019-01-16T00:05:47.364Z,42.93
2019-01-16T00:08:36.570Z,43.00
2019-01-16T00:11:20.096Z,43.80
2019-01-16T00:13:54.046Z,48.93
2019-01-16T00:16:25.233Z,39.33
2019-01-16T00:19:05.028Z,41.97
2019-01-16T00:21:45.475Z,30.10
2019-01-16T00:24:32.972Z,37.50
2019-01-16T00:27:07.145Z,49.00
2019-01-16T00:29:38.328Z,48.27
2019-01-16T00:32:12.196Z,36.07
2019-01-16T00:34:46.314Z,42.87
2019-01-16T00:37:17.497Z,38.67
2019-01-16T00:39:51.376Z,36.03
2019-01-16T00:42:42.115Z,41.37
2019-01-16T00:45:25.373Z,40.27
2019-01-16T00:48:02.083Z,46.83
2019-01-16T00:50:39.033Z,37.43
2019-01-16T00:53:10.254Z,31.10
2019-01-16T00:55:44.644Z,35.97
2019-01-16T00:58:32.261Z,36.27
2019-01-16T01:01:03.505Z,32.77
2019-01-16T01:03:41.170Z,27.47
2019-01-16T01:06:18.425Z,29.63
2019-01-16T01:08:52.115Z,32.17
2019-01-16T01:11:25.996Z,34.40
2019-01-16T01:14:12.334Z,44.03
2019-01-16T01:16:43.758Z,30.90
2019-01-16T01:19:24.249Z,32.30
2019-01-16T01:22:01.539Z,33.67
2019-01-16T01:24:32.793Z,35.70
2019-01-16T01:27:06.396Z,30.60
2019-01-16T01:29:46.901Z,34.37
2019-01-16T01:32:33.274Z,35.23
2019-01-16T01:35:04.395Z,32.03
2019-01-16T01:37:51.495Z,33.40
2019-01-16T01:40:22.658Z,34.77
2019-01-16T01:42:53.825Z,28.13
2019-01-16T01:45:27.702Z,36.00
2019-01-16T01:48:11.318Z,31.23
2019-01-16T01:50:45.007Z,25.27
2019-01-16T01:53:16.615Z,28.87
2019-01-16T01:55:47.992Z,26.57
2019-01-16T01:58:28.281Z,31.83
2019-01-16T02:00:59.649Z,35.23
2019-01-16T02:03:36.377Z,34.87
2019-01-16T02:06:10.618Z,33.17
2019-01-16T02:08:44.687Z,45.67
2019-01-16T02:11:18.543Z,35.33
2019-01-16T02:14:06.984Z,29.43
2019-01-16T02:16:40.944Z,27.90
2019-01-16T02:19:12.137Z,37.03
2019-01-16T02:21:52.181Z,36.03
2019-01-16T02:24:25.846Z,48.50
2019-01-16T02:27:02.806Z,32.10
2019-01-16T02:29:50.111Z,38.07
2019-01-16T02:32:33.414Z,31.80
2019-01-16T02:35:06.023Z,26.30
2019-01-16T02:37:37.251Z,34.97
2019-01-16T02:40:17.122Z,35.73
2019-01-16T02:42:50.993Z,26.10
2019-01-16T02:45:37.408Z,32.90
2019-01-16T02:48:14.798Z,39.47
2019-01-16T02:50:57.908Z,36.53
2019-01-16T02:53:45.233Z,31.23
2019-01-16T02:56:16.609Z,32.00
2019-01-16T02:58:53.836Z,40.40
2019-01-16T03:01:28.340Z,35.17
2019-01-16T03:04:15.720Z,39.17
2019-01-16T03:06:52.391Z,38.10
2019-01-16T03:09:38.620Z,34.40
2019-01-16T03:12:18.891Z,24.50
2019-01-16T03:14:59.442Z,33.67
2019-01-16T03:17:34.208Z,28.10
2019-01-16T03:20:15.506Z,36.53
2019-01-16T03:22:46.952Z,32.03
2019-01-16T03:25:34.533Z,34.33
2019-01-16T03:28:20.820Z,42.60
2019-01-16T03:30:58.458Z,33.30
2019-01-16T03:33:41.852Z,33.97
2019-01-16T03:36:13.223Z,31.93
2019-01-16T03:38:44.701Z,33.10
2019-01-16T03:41:32.280Z,30.40
2019-01-16T03:44:03.657Z,31.33
2019-01-16T03:46:43.908Z,34.67
2019-01-16T03:49:31.274Z,38.50
2019-01-16T03:52:11.755Z,35.53
2019-01-16T03:54:45.667Z,38.13
2019-01-16T03:57:22.520Z,41.77
2019-01-16T04:00:02.915Z,40.63
2019-01-16T04:02:40.235Z,37.77
2019-01-16T04:05:23.515Z,33.23
2019-01-16T04:07:54.825Z,33.30
2019-01-16T04:10:42.426Z,38.43
2019-01-16T04:13:25.789Z,27.53
2019-01-16T04:15:59.645Z,39.60
2019-01-16T04:18:33.544Z,30.20
2019-01-16T04:21:07.821Z,42.60
2019-01-16T04:23:45.020Z,44.80
2019-01-16T04:26:16.231Z,29.40
2019-01-16T04:28:47.508Z,38.30
2019-01-16T04:31:27.365Z,31.43
2019-01-16T04:34:01.582Z,48.30
2019-01-16T04:36:51.153Z,31.60
2019-01-16T04:39:25.176Z,29.93
2019-01-16T04:42:05.139Z,43.97
2019-01-16T04:44:39.148Z,40.00
2019-01-16T04:47:10.568Z,32.80
2019-01-16T04:49:59.402Z,34.73
2019-01-16T04:52:30.660Z,45.20
2019-01-16T04:55:14.084Z,37.83
2019-01-16T04:58:00.223Z,31.67
2019-01-16T05:00:49.595Z,30.60
2019-01-16T05:03:38.951Z,35.10
2019-01-16T05:06:28.434Z,37.63
2019-01-16T05:08:59.681Z,39.97
2019-01-16T05:11:31.061Z,35.17
2019-01-16T05:14:02.470Z,34.73
2019-01-16T05:16:40.009Z,33.43
2019-01-16T05:19:14.349Z,35.67
2019-01-16T05:21:51.885Z,27.37
2019-01-16T05:24:37.822Z,31.43
2019-01-16T05:27:24.864Z,43.40
2019-01-16T05:30:12.536Z,42.97
2019-01-16T05:32:43.765Z,40.70
2019-01-16T05:35:31.284Z,35.83
2019-01-16T05:38:19.607Z,36.33
2019-01-16T05:40:53.747Z,39.77
2019-01-16T05:43:41.311Z,38.90
2019-01-16T05:46:21.704Z,38.00
2019-01-16T05:52:22.873Z,29.77
2019-01-16T05:52:42.621Z,31.27
2019-01-16T05:55:08.968Z,39.47
2019-01-16T05:57:52.132Z,39.53
2019-01-16T06:00:39.638Z,42.27
2019-01-16T06:03:26.157Z,40.07
2019-01-16T06:06:13.661Z,42.33
2019-01-16T06:08:47.592Z,33.97
2019-01-16T06:11:24.359Z,37.47
2019-01-16T06:13:55.765Z,31.20
2019-01-16T06:16:36.137Z,43.57
2019-01-16T06:19:22.218Z,39.77
2019-01-16T06:22:09.639Z,42.27
2019-01-16T06:24:47.229Z,38.07
2019-01-16T06:27:21.587Z,38.00
2019-01-16T06:29:52.823Z,44.03
2019-01-16T06:32:40.230Z,44.53
2019-01-16T06:35:14.761Z,42.47
2019-01-16T06:37:51.997Z,41.67
2019-01-16T06:40:29.917Z,45.07
2019-01-16T06:43:13.343Z,38.53
2019-01-16T06:45:47.208Z,35.20
2019-01-16T06:48:21.246Z,41.27
2019-01-16T06:51:01.458Z,38.10
2019-01-16T06:53:44.712Z,37.37
2019-01-16T06:56:31.303Z,41.40
2019-01-16T06:59:02.505Z,34.20
2019-01-16T07:01:45.253Z,37.53
2019-01-16T07:04:16.412Z,44.27
2019-01-16T07:06:50.264Z,39.00
2019-01-16T07:09:27.373Z,38.87
2019-01-16T07:12:04.305Z,34.10
2019-01-16T07:14:41.334Z,33.83
2019-01-16T07:17:18.569Z,32.07
2019-01-16T07:20:09.348Z,34.43
2019-01-16T07:22:34.575Z,31.90
2019-01-16T07:25:12.645Z,39.87
2019-01-16T07:27:49.643Z,27.33
2019-01-16T07:30:20.815Z,30.13
2019-01-16T07:33:10.371Z,31.83
2019-01-16T07:35:41.584Z,30.10
2019-01-16T07:38:12.774Z,33.27
2019-01-16T07:40:44.214Z,30.13
2019-01-16T07:43:30.711Z,29.43
2019-01-16T07:46:01.903Z,23.83
2019-01-16T07:48:41.795Z,29.17
2019-01-16T07:51:12.977Z,36.23
2019-01-16T07:53:44.159Z,35.87
2019-01-16T07:56:21.171Z,36.90
2019-01-16T07:58:55.256Z,23.47
2019-01-16T08:01:42.777Z,33.57
2019-01-16T08:04:14.169Z,32.17
2019-01-16T08:07:01.360Z,31.13
2019-01-16T08:09:48.779Z,30.37
2019-01-16T08:12:20.019Z,30.50
2019-01-16T08:14:53.824Z,28.50
2019-01-16T08:17:25.184Z,37.10
2019-01-16T08:20:12.831Z,29.10
2019-01-16T08:22:56.017Z,28.50
2019-01-16T08:25:27.190Z,30.67
2019-01-16T08:28:14.806Z,42.53
2019-01-16T08:30:56.403Z,27.10
2019-01-16T08:33:30.592Z,30.23
2019-01-16T08:36:14.092Z,30.02
2019-01-16T08:39:01.912Z,28.37
2019-01-16T08:41:33.601Z,29.63
2019-01-16T08:44:19.943Z,29.27
2019-01-16T08:47:03.310Z,33.13
2019-01-16T08:49:51.052Z,36.60
2019-01-16T08:52:31.685Z,23.40
2019-01-16T08:55:11.878Z,25.87
2019-01-16T08:57:59.196Z,23.17
2019-01-16T09:00:39.345Z,31.90
2019-01-16T09:03:10.684Z,24.10
2019-01-16T09:05:57.992Z,21.07
2019-01-16T09:08:34.882Z,21.30
2019-01-16T09:11:06.054Z,20.83
2019-01-16T09:13:46.038Z,26.10
2019-01-16T09:16:19.892Z,18.90
2019-01-16T09:19:07.207Z,22.47
2019-01-16T09:21:42.854Z,15.53
2019-01-16T09:24:23.242Z,18.60
2019-01-16T09:27:10.664Z,25.77
2019-01-16T09:29:58.376Z,20.40
2019-01-16T09:32:32.582Z,16.63
2019-01-16T09:35:18.870Z,17.63
2019-01-16T09:37:52.941Z,18.50
2019-01-16T09:40:32.959Z,17.10
2019-01-16T09:43:09.627Z,16.90
2019-01-16T09:45:40.984Z,22.83
2019-01-16T09:48:14.958Z,21.40
2019-01-16T09:50:47.924Z,17.47
2019-01-16T09:53:19.074Z,16.30
2019-01-16T09:55:56.099Z,16.33
2019-01-16T09:58:33.169Z,20.57
2019-01-16T10:01:20.357Z,23.83
2019-01-16T10:03:57.161Z,21.37
2019-01-16T10:06:28.463Z,13.83
2019-01-16T10:08:59.817Z,16.07
2019-01-16T10:11:42.965Z,16.03
2019-01-16T10:14:22.998Z,14.67
2019-01-16T10:16:57.139Z,12.73
2019-01-16T10:19:46.730Z,15.07
2019-01-16T10:22:17.873Z,17.40
2019-01-16T10:24:51.475Z,15.93
2019-01-16T10:27:25.660Z,20.80
2019-01-16T10:30:08.957Z,18.60
2019-01-16T10:32:56.433Z,15.97
2019-01-16T10:35:30.375Z,9.37
2019-01-16T10:38:18.118Z,14.13
2019-01-16T10:40:52.016Z,17.27
2019-01-16T10:43:26.158Z,13.30
2019-01-16T10:46:13.385Z,15.07
2019-01-16T10:48:50.466Z,17.97
2019-01-16T10:51:27.145Z,16.70
2019-01-16T10:54:04.141Z,14.63
2019-01-16T10:56:35.320Z,12.97
2019-01-16T10:59:22.509Z,9.57
2019-01-16T11:01:53.683Z,11.00
2019-01-16T11:04:24.865Z,16.50
2019-01-16T11:07:01.616Z,18.43
2019-01-16T11:09:50.287Z,15.20
2019-01-16T11:12:21.469Z,11.13
2019-01-16T11:14:58.502Z,10.27
2019-01-16T11:17:29.859Z,12.37
2019-01-16T11:20:06.772Z,8.93
2019-01-16T11:22:44.325Z,13.60
2019-01-16T11:25:33.878Z,11.07
2019-01-16T11:28:18.545Z,14.10
2019-01-16T11:31:01.787Z,10.40
2019-01-16T11:33:42.138Z,13.57
2019-01-16T11:36:15.880Z,12.30
2019-01-16T11:38:59.128Z,11.97
2019-01-16T11:41:41.840Z,8.90
2019-01-16T11:44:22.222Z,11.03
2019-01-16T11:46:53.322Z,8.83
2019-01-16T11:49:27.330Z,10.17
2019-01-16T11:52:14.735Z,9.70
2019-01-16T11:55:02.125Z,11.47
2019-01-16T11:57:45.377Z,12.23
2019-01-16T12:00:19.684Z,10.97
2019-01-16T12:02:50.898Z,7.00
2019-01-16T12:05:22.095Z,8.40
2019-01-16T12:07:53.260Z,8.90
2019-01-16T12:10:24.450Z,8.27
2019-01-16T12:12:55.671Z,7.50
2019-01-16T12:15:43.232Z,5.77
2019-01-16T12:18:14.438Z,6.40
2019-01-16T12:21:02.237Z,8.80
2019-01-16T12:23:33.542Z,12.90
2019-01-16T12:26:19.884Z,8.50
2019-01-16T12:28:54.121Z,8.23
2019-01-16T12:31:25.272Z,9.73
2019-01-16T12:34:14.548Z,10.93
2019-01-16T12:36:48.440Z,12.20
2019-01-16T12:39:35.511Z,8.40
2019-01-16T12:42:18.911Z,10.37
2019-01-16T12:44:51.139Z,11.00
2019-01-16T12:47:28.351Z,11.60
2019-01-16T12:50:08.338Z,11.57
2019-01-16T12:52:39.538Z,14.20
2019-01-16T12:55:10.877Z,13.97
2019-01-16T12:57:58.141Z,15.43
2019-01-16T13:00:47.473Z,19.57
2019-01-16T13:03:27.563Z,14.37
2019-01-16T13:06:01.729Z,14.10
2019-01-16T13:08:41.407Z,15.63
2019-01-16T13:11:21.755Z,16.80
2019-01-16T13:13:55.464Z,14.13
2019-01-16T13:16:29.161Z,11.30
2019-01-16T13:19:06.133Z,12.47
2019-01-16T13:21:40.037Z,12.63
2019-01-16T13:24:10.342Z,11.80
2019-01-16T13:26:58.119Z,10.43
2019-01-16T13:29:37.358Z,13.57
2019-01-16T13:32:13.838Z,10.93
2019-01-16T13:34:47.836Z,10.60
2019-01-16T13:37:19.055Z,10.80
2019-01-16T13:39:53.001Z,12.23
2019-01-16T13:42:24.228Z,9.97
2019-01-16T13:44:55.527Z,8.57
2019-01-16T13:47:29.454Z,9.20
2019-01-16T13:50:17.040Z,9.40
2019-01-16T13:52:50.894Z,11.17
2019-01-16T13:55:37.443Z,10.90
2019-01-16T13:58:14.535Z,8.57
2019-01-16T14:00:54.512Z,8.30
2019-01-16T14:03:42.024Z,11.97
2019-01-16T14:06:19.384Z,10.50
2019-01-16T14:08:50.525Z,10.40
2019-01-16T14:11:34.000Z,12.50
2019-01-16T14:14:07.964Z,10.87
2019-01-16T14:16:48.413Z,12.10
2019-01-16T14:19:31.537Z,13.87
2019-01-16T14:22:11.825Z,10.90
2019-01-16T14:24:51.853Z,15.40
2019-01-16T14:27:35.074Z,12.67
2019-01-16T14:30:12.172Z,12.27
2019-01-16T14:32:45.929Z,14.37
2019-01-16T14:35:20.201Z,13.03
2019-01-16T14:38:07.310Z,12.80
2019-01-16T14:40:44.610Z,12.40
2019-01-16T14:43:21.915Z,13.53
2019-01-16T14:46:11.329Z,12.93
2019-01-16T14:48:42.516Z,14.23
2019-01-16T14:51:19.073Z,16.07
2019-01-16T14:53:50.497Z,16.57
2019-01-16T14:56:21.930Z,17.93
2019-01-16T14:58:56.098Z,15.77
2019-01-16T15:01:27.342Z,17.67
2019-01-16T15:04:07.905Z,17.37
2019-01-16T15:06:45.049Z,18.97
2019-01-16T15:09:32.774Z,21.60
2019-01-16T15:12:10.183Z,17.37
2019-01-16T15:14:54.322Z,17.67
2019-01-16T15:17:31.099Z,18.87
2019-01-16T15:20:12.041Z,18.47
2019-01-16T15:22:43.196Z,17.23
2019-01-16T15:25:17.109Z,19.60
2019-01-16T15:27:51.215Z,16.70
2019-01-16T15:30:38.793Z,19.70
2019-01-16T15:33:19.251Z,19.70
2019-01-16T15:36:02.508Z,19.77
2019-01-16T15:38:33.678Z,18.90
2019-01-16T15:41:10.459Z,18.13
2019-01-16T15:43:41.863Z,20.13
2019-01-16T15:46:16.165Z,18.90
2019-01-16T15:49:02.311Z,23.97
2019-01-16T15:51:33.485Z,22.00
2019-01-16T15:54:04.635Z,21.47
2019-01-16T15:56:35.965Z,22.13
2019-01-16T15:59:09.898Z,21.13
2019-01-16T16:01:57.265Z,20.27
2019-01-16T16:04:28.446Z,20.77
2019-01-16T16:06:59.618Z,22.00
2019-01-16T16:09:30.805Z,19.93
2019-01-16T16:12:02.102Z,23.43
2019-01-16T16:14:49.544Z,22.37
2019-01-16T16:17:23.740Z,24.17
2019-01-16T16:20:01.012Z,21.10
2019-01-16T16:22:38.346Z,24.63
2019-01-16T16:25:09.535Z,26.73
2019-01-16T16:27:55.731Z,24.73
2019-01-16T16:30:43.317Z,19.73
2019-01-16T16:33:23.536Z,23.30
2019-01-16T16:36:13.183Z,24.90
2019-01-16T16:38:44.461Z,23.83
2019-01-16T16:41:15.919Z,23.57
2019-01-16T16:43:56.207Z,23.00
2019-01-16T16:46:43.507Z,24.67
2019-01-16T16:49:14.948Z,22.10
2019-01-16T16:51:58.641Z,24.93
2019-01-16T16:54:36.140Z,23.67
2019-01-16T16:57:18.213Z,26.87
2019-01-16T17:00:06.216Z,27.10
2019-01-16T17:02:53.932Z,27.63
2019-01-16T17:05:28.200Z,26.93
2019-01-16T17:07:59.608Z,27.40
2019-01-16T17:10:46.349Z,25.17
2019-01-16T17:13:29.671Z,23.23
2019-01-16T17:16:06.780Z,27.83
2019-01-16T17:18:40.785Z,27.40
2019-01-16T17:21:15.022Z,25.90
2019-01-16T17:23:55.309Z,30.70
2019-01-16T17:26:26.596Z,26.87
2019-01-16T17:29:00.357Z,29.13
2019-01-16T17:31:31.911Z,28.87
2019-01-16T17:34:03.496Z,27.87
2019-01-16T17:36:47.489Z,30.20
2019-01-16T17:39:24.814Z,27.57
2019-01-16T17:41:56.133Z,28.57
2019-01-16T17:44:39.439Z,31.23
2019-01-16T17:47:19.754Z,31.43
2019-01-16T17:49:53.918Z,31.40
2019-01-16T17:52:38.811Z,30.87
2019-01-16T17:55:27.370Z,22.47
2019-01-16T17:57:58.997Z,21.57
2019-01-16T18:00:36.160Z,26.93
2019-01-16T18:03:24.757Z,28.07
2019-01-16T18:06:01.834Z,23.37
2019-01-16T18:08:33.200Z,24.27
2019-01-16T18:11:04.527Z,24.97
2019-01-16T18:13:45.178Z,27.13
2019-01-16T18:16:20.396Z,24.10
2019-01-16T18:19:10.027Z,24.00
2019-01-16T18:21:44.596Z,30.23
2019-01-16T18:24:23.371Z,29.30
2019-01-16T18:26:57.875Z,27.57
2019-01-16T18:29:46.939Z,22.67
2019-01-16T18:32:33.714Z,28.20
2019-01-16T18:35:08.178Z,26.67
2019-01-16T18:37:42.077Z,25.07
2019-01-16T18:40:18.124Z,24.27
2019-01-16T18:43:01.302Z,26.80
2019-01-16T18:45:32.522Z,28.10
2019-01-16T18:48:07.004Z,28.40
2019-01-16T18:50:53.159Z,31.53
2019-01-16T18:53:33.783Z,33.57
2019-01-16T18:56:11.997Z,33.20
2019-01-16T18:58:43.354Z,30.47
2019-01-16T19:01:14.662Z,33.73
2019-01-16T19:03:46.036Z,30.57
2019-01-16T19:09:59.387Z,30.83
2019-01-16T19:12:36.841Z,30.70
2019-01-16T19:15:10.755Z,30.53
2019-01-16T19:17:45.138Z,32.37
2019-01-16T19:20:22.999Z,36.10
2019-01-16T19:22:58.139Z,34.80
2019-01-16T19:25:29.503Z,34.73
2019-01-16T19:28:00.742Z,36.00
2019-01-16T19:30:33.965Z,36.80
2019-01-16T19:33:05.445Z,39.33
2019-01-16T19:35:39.754Z,43.17
2019-01-16T19:38:28.907Z,36.80
2019-01-16T19:41:06.061Z,41.97
2019-01-16T19:43:43.177Z,39.43
2019-01-16T19:46:31.192Z,40.27
2019-01-16T19:49:02.478Z,37.80
2019-01-16T19:51:33.963Z,37.93
2019-01-16T19:54:20.476Z,35.80
2019-01-16T19:57:10.410Z,36.30
2019-01-16T19:59:44.480Z,41.83
2019-01-16T20:02:32.054Z,35.80
2019-01-16T20:05:15.370Z,34.17
2019-01-16T20:07:49.362Z,34.90
2019-01-16T20:10:36.009Z,33.23
2019-01-16T20:13:13.463Z,36.73
2019-01-16T20:15:53.808Z,31.90
2019-01-16T20:18:37.381Z,34.53
2019-01-16T20:21:20.348Z,34.33
2019-01-16T20:23:54.084Z,33.80
2019-01-16T20:26:41.181Z,34.00
2019-01-16T20:29:20.025Z,32.57
2019-01-16T20:32:03.132Z,30.07
2019-01-16T20:34:46.308Z,34.97
2019-01-16T20:37:17.620Z,33.10
2019-01-16T20:39:48.823Z,25.17
2019-01-16T20:42:23.179Z,30.90
2019-01-16T20:45:10.810Z,32.43
2019-01-16T20:47:56.879Z,27.33
2019-01-16T20:50:28.093Z,24.90
2019-01-16T20:53:01.911Z,24.37
2019-01-16T20:55:39.209Z,24.27
2019-01-16T20:58:22.663Z,24.37
2019-01-16T21:00:55.731Z,23.37
2019-01-16T21:03:26.931Z,24.83
2019-01-16T21:06:14.013Z,24.93
2019-01-16T21:08:50.964Z,23.23
2019-01-16T21:11:27.810Z,25.70
2019-01-16T21:14:04.738Z,23.97
2019-01-16T21:16:51.925Z,26.20
2019-01-16T21:19:38.076Z,28.03
2019-01-16T21:22:09.248Z,23.10
2019-01-16T21:24:56.462Z,24.37
2019-01-16T21:27:28.679Z,20.77
2019-01-16T21:30:05.847Z,23.90
2019-01-16T21:32:42.912Z,24.27
2019-01-16T21:35:30.137Z,24.97
2019-01-16T21:38:10.540Z,23.33
2019-01-16T21:40:57.779Z,22.97
2019-01-16T21:43:44.189Z,25.83
2019-01-16T21:46:31.557Z,24.50
2019-01-16T21:49:09.450Z,29.13
2019-01-16T21:51:46.649Z,28.50
2019-01-16T21:54:20.585Z,30.00
2019-01-16T21:57:07.384Z,34.23
2019-01-16T21:59:38.578Z,32.40
2019-01-16T22:02:15.260Z,30.73
2019-01-16T22:04:55.389Z,32.23
2019-01-16T22:07:32.284Z,37.77
2019-01-16T22:10:09.534Z,29.00
2019-01-16T22:12:40.799Z,30.67
2019-01-16T22:15:32.505Z,34.83
2019-01-16T22:18:09.793Z,31.93
2019-01-16T22:20:52.176Z,30.43
2019-01-16T22:23:23.379Z,35.17
2019-01-16T22:26:04.202Z,32.30
2019-01-16T22:28:40.204Z,34.83
2019-01-16T22:31:28.370Z,35.80
2019-01-16T22:33:59.580Z,37.00
2019-01-16T22:36:48.882Z,38.60
2019-01-16T22:39:36.111Z,46.23
2019-01-16T22:42:19.501Z,42.90
2019-01-16T22:44:53.665Z,41.40
2019-01-16T22:47:36.751Z,43.17
2019-01-16T22:50:12.595Z,45.03
2019-01-16T22:52:46.409Z,44.97
2019-01-16T22:55:23.340Z,42.93
2019-01-16T22:57:57.099Z,42.00
2019-01-16T23:00:50.185Z,43.00
2019-01-16T23:03:46.498Z,40.30
2019-01-16T23:06:23.995Z,38.00
2019-01-16T23:09:11.738Z,39.03
2019-01-16T23:12:03.750Z,33.37
2019-01-16T23:14:47.978Z,37.17
2019-01-16T23:17:25.054Z,39.57
2019-01-16T23:19:59.195Z,41.50
2019-01-16T23:22:36.821Z,38.03
2019-01-16T23:25:08.213Z,33.57
2019-01-16T23:27:55.182Z,39.50
2019-01-16T23:30:42.418Z,37.93
2019-01-16T23:33:13.611Z,38.13
2019-01-16T23:35:45.031Z,35.53
2019-01-16T23:38:22.322Z,39.07
2019-01-16T23:41:00.271Z,37.20
2019-01-16T23:43:31.453Z,33.87
2019-01-16T23:46:11.571Z,32.63
2019-01-16T23:48:54.745Z,32.23
2019-01-16T23:51:44.311Z,31.87
2019-01-16T23:54:15.687Z,29.17
2019-01-16T23:56:46.899Z,27.87
2019-01-16T23:59:18.066Z,27.27
